sensor_id;sensor_type;location;lat;lon;timestamp;P1;durP1;ratioP1;P2;durP2;ratioP2
17991;SDS011;9121;50.926;5.340;2022-10-17T00:01:39;23.50;;;16.08;;
17991;SDS011;9121;50.926;5.340;2022-10-17T00:04:06;26.67;;;15.52;;
17991;SDS011;9121;50.926;5.340;2022-10-17T00:06:34;23.23;;;14.93;;
17991;SDS011;9121;50.926;5.340;2022-10-17T00:09:01;22.02;;;15.85;;
17991;SDS011;9121;50.926;5.340;2022-10-17T00:11:28;24.55;;;14.85;;
17991;SDS011;9121;50.926;5.340;2022-10-17T00:13:55;22.05;;;15.63;;
17991;SDS011;9121;50.926;5.340;2022-10-17T00:16:22;21.88;;;14.95;;
17991;SDS011;9121;50.926;5.340;2022-10-17T00:18:50;28.85;;;16.10;;
17991;SDS011;9121;50.926;5.340;2022-10-17T00:21:17;26.27;;;16.08;;
17991;SDS011;9121;50.926;5.340;2022-10-17T00:23:46;23.95;;;15.93;;
17991;SDS011;9121;50.926;5.340;2022-10-17T00:26:13;21.52;;;15.23;;
17991;SDS011;9121;50.926;5.340;2022-10-17T00:28:41;23.15;;;15.15;;
17991;SDS011;9121;50.926;5.340;2022-10-17T00:31:10;22.73;;;14.40;;
17991;SDS011;9121;50.926;5.340;2022-10-17T00:33:37;22.95;;;15.27;;
17991;SDS011;9121;50.926;5.340;2022-10-17T00:36:05;22.42;;;15.18;;
17991;SDS011;9121;50.926;5.340;2022-10-17T00:38:34;24.17;;;15.65;;
17991;SDS011;9121;50.926;5.340;2022-10-17T00:41:03;21.23;;;15.52;;
17991;SDS011;9121;50.926;5.340;2022-10-17T00:46:14;23.77;;;14.55;;
17991;SDS011;9121;50.926;5.340;2022-10-17T00:48:41;26.05;;;14.20;;
17991;SDS011;9121;50.926;5.340;2022-10-17T00:51:09;24.15;;;14.32;;
17991;SDS011;9121;50.926;5.340;2022-10-17T00:53:36;25.00;;;14.35;;
17991;SDS011;9121;50.926;5.340;2022-10-17T00:56:06;26.25;;;15.20;;
17991;SDS011;9121;50.926;5.340;2022-10-17T00:58:33;25.60;;;14.15;;
17991;SDS011;9121;50.926;5.340;2022-10-17T01:01:00;22.40;;;13.88;;
17991;SDS011;9121;50.926;5.340;2022-10-17T01:03:28;23.42;;;14.57;;
17991;SDS011;9121;50.926;5.340;2022-10-17T01:05:55;25.63;;;14.50;;
17991;SDS011;9121;50.926;5.340;2022-10-17T01:08:22;23.30;;;14.13;;
17991;SDS011;9121;50.926;5.340;2022-10-17T01:10:52;24.52;;;14.40;;
17991;SDS011;9121;50.926;5.340;2022-10-17T01:13:29;21.35;;;13.68;;
17991;SDS011;9121;50.926;5.340;2022-10-17T01:16:02;21.95;;;15.30;;
17991;SDS011;9121;50.926;5.340;2022-10-17T01:18:39;20.83;;;13.95;;
17991;SDS011;9121;50.926;5.340;2022-10-17T01:30:12;24.33;;;13.45;;
17991;SDS011;9121;50.926;5.340;2022-10-17T01:33:07;24.40;;;13.68;;
17991;SDS011;9121;50.926;5.340;2022-10-17T01:35:40;23.17;;;13.65;;
17991;SDS011;9121;50.926;5.340;2022-10-17T01:38:14;23.77;;;13.77;;
17991;SDS011;9121;50.926;5.340;2022-10-17T01:40:48;22.80;;;12.98;;
17991;SDS011;9121;50.926;5.340;2022-10-17T01:43:20;26.52;;;13.23;;
17991;SDS011;9121;50.926;5.340;2022-10-17T01:45:51;19.83;;;13.80;;
17991;SDS011;9121;50.926;5.340;2022-10-17T01:48:24;20.30;;;12.98;;
17991;SDS011;9121;50.926;5.340;2022-10-17T01:50:57;17.70;;;12.48;;
17991;SDS011;9121;50.926;5.340;2022-10-17T01:53:29;18.65;;;12.10;;
17991;SDS011;9121;50.926;5.340;2022-10-17T01:55:59;21.30;;;12.70;;
17991;SDS011;9121;50.926;5.340;2022-10-17T01:58:30;18.17;;;12.55;;
17991;SDS011;9121;50.926;5.340;2022-10-17T02:00:59;21.65;;;12.63;;
17991;SDS011;9121;50.926;5.340;2022-10-17T02:03:31;19.30;;;12.20;;
17991;SDS011;9121;50.926;5.340;2022-10-17T02:06:00;20.45;;;12.85;;
17991;SDS011;9121;50.926;5.340;2022-10-17T02:08:28;20.13;;;11.55;;
17991;SDS011;9121;50.926;5.340;2022-10-17T02:11:06;21.75;;;12.40;;
17991;SDS011;9121;50.926;5.340;2022-10-17T02:13:39;18.95;;;11.35;;
17991;SDS011;9121;50.926;5.340;2022-10-17T02:16:18;15.27;;;10.73;;
17991;SDS011;9121;50.926;5.340;2022-10-17T02:19:03;22.48;;;11.27;;
17991;SDS011;9121;50.926;5.340;2022-10-17T02:21:39;20.30;;;10.95;;
17991;SDS011;9121;50.926;5.340;2022-10-17T02:24:16;22.63;;;10.70;;
17991;SDS011;9121;50.926;5.340;2022-10-17T02:26:47;16.70;;;10.30;;
17991;SDS011;9121;50.926;5.340;2022-10-17T02:29:21;15.57;;;11.25;;
17991;SDS011;9121;50.926;5.340;2022-10-17T02:31:53;18.20;;;11.60;;
17991;SDS011;9121;50.926;5.340;2022-10-17T02:34:26;15.50;;;10.50;;
17991;SDS011;9121;50.926;5.340;2022-10-17T02:36:57;14.43;;;9.85;;
17991;SDS011;9121;50.926;5.340;2022-10-17T02:39:27;18.73;;;10.45;;
17991;SDS011;9121;50.926;5.340;2022-10-17T02:41:56;16.75;;;9.88;;
17991;SDS011;9121;50.926;5.340;2022-10-17T02:44:26;15.93;;;10.48;;
17991;SDS011;9121;50.926;5.340;2022-10-17T02:46:58;13.52;;;9.80;;
17991;SDS011;9121;50.926;5.340;2022-10-17T02:49:33;16.52;;;9.95;;
17991;SDS011;9121;50.926;5.340;2022-10-17T02:52:05;16.67;;;9.18;;
17991;SDS011;9121;50.926;5.340;2022-10-17T02:54:37;14.90;;;9.23;;
17991;SDS011;9121;50.926;5.340;2022-10-17T02:57:08;13.07;;;8.82;;
17991;SDS011;9121;50.926;5.340;2022-10-17T02:59:39;13.05;;;9.40;;
17991;SDS011;9121;50.926;5.340;2022-10-17T03:02:09;16.75;;;9.23;;
17991;SDS011;9121;50.926;5.340;2022-10-17T03:04:38;16.70;;;9.30;;
17991;SDS011;9121;50.926;5.340;2022-10-17T03:07:08;14.52;;;9.07;;
17991;SDS011;9121;50.926;5.340;2022-10-17T03:09:35;12.57;;;8.52;;
17991;SDS011;9121;50.926;5.340;2022-10-17T03:12:02;12.77;;;8.85;;
17991;SDS011;9121;50.926;5.340;2022-10-17T03:14:29;12.55;;;8.82;;
17991;SDS011;9121;50.926;5.340;2022-10-17T03:16:56;15.10;;;8.98;;
17991;SDS011;9121;50.926;5.340;2022-10-17T03:19:23;11.40;;;8.50;;
17991;SDS011;9121;50.926;5.340;2022-10-17T03:21:51;14.10;;;9.10;;
17991;SDS011;9121;50.926;5.340;2022-10-17T03:24:18;12.25;;;7.78;;
17991;SDS011;9121;50.926;5.340;2022-10-17T03:26:45;13.25;;;8.50;;
17991;SDS011;9121;50.926;5.340;2022-10-17T03:29:12;16.52;;;9.27;;
17991;SDS011;9121;50.926;5.340;2022-10-17T03:31:39;15.35;;;9.07;;
17991;SDS011;9121;50.926;5.340;2022-10-17T03:34:06;15.70;;;8.65;;
17991;SDS011;9121;50.926;5.340;2022-10-17T03:36:33;13.02;;;8.32;;
17991;SDS011;9121;50.926;5.340;2022-10-17T03:39:01;17.77;;;8.32;;
17991;SDS011;9121;50.926;5.340;2022-10-17T03:41:28;15.48;;;7.68;;
17991;SDS011;9121;50.926;5.340;2022-10-17T03:43:55;11.68;;;8.10;;
17991;SDS011;9121;50.926;5.340;2022-10-17T03:46:22;13.07;;;7.50;;
17991;SDS011;9121;50.926;5.340;2022-10-17T03:48:48;9.20;;;7.40;;
17991;SDS011;9121;50.926;5.340;2022-10-17T03:51:15;13.68;;;8.55;;
17991;SDS011;9121;50.926;5.340;2022-10-17T03:53:42;10.40;;;8.00;;
17991;SDS011;9121;50.926;5.340;2022-10-17T03:56:12;12.32;;;7.90;;
17991;SDS011;9121;50.926;5.340;2022-10-17T03:58:40;14.50;;;7.78;;
17991;SDS011;9121;50.926;5.340;2022-10-17T04:01:08;12.95;;;8.15;;
17991;SDS011;9121;50.926;5.340;2022-10-17T04:03:38;12.23;;;8.10;;
17991;SDS011;9121;50.926;5.340;2022-10-17T04:06:06;15.40;;;8.85;;
17991;SDS011;9121;50.926;5.340;2022-10-17T04:08:35;10.30;;;7.45;;
17991;SDS011;9121;50.926;5.340;2022-10-17T04:11:03;12.50;;;7.60;;
17991;SDS011;9121;50.926;5.340;2022-10-17T04:13:34;12.10;;;7.75;;
17991;SDS011;9121;50.926;5.340;2022-10-17T04:16:02;10.82;;;7.38;;
17991;SDS011;9121;50.926;5.340;2022-10-17T04:18:31;12.63;;;7.50;;
17991;SDS011;9121;50.926;5.340;2022-10-17T04:20:59;13.63;;;7.20;;
17991;SDS011;9121;50.926;5.340;2022-10-17T04:23:27;12.38;;;7.53;;
17991;SDS011;9121;50.926;5.340;2022-10-17T04:25:54;12.73;;;7.72;;
17991;SDS011;9121;50.926;5.340;2022-10-17T04:28:22;10.57;;;7.70;;
17991;SDS011;9121;50.926;5.340;2022-10-17T04:30:55;12.15;;;7.10;;
17991;SDS011;9121;50.926;5.340;2022-10-17T04:33:22;16.08;;;8.07;;
17991;SDS011;9121;50.926;5.340;2022-10-17T04:35:54;10.25;;;7.05;;
17991;SDS011;9121;50.926;5.340;2022-10-17T04:38:21;12.93;;;6.80;;
17991;SDS011;9121;50.926;5.340;2022-10-17T04:40:48;10.27;;;7.15;;
17991;SDS011;9121;50.926;5.340;2022-10-17T04:43:15;10.07;;;7.05;;
17991;SDS011;9121;50.926;5.340;2022-10-17T04:45:42;11.35;;;6.85;;
17991;SDS011;9121;50.926;5.340;2022-10-17T04:48:10;11.70;;;6.88;;
17991;SDS011;9121;50.926;5.340;2022-10-17T04:50:37;12.40;;;7.60;;
17991;SDS011;9121;50.926;5.340;2022-10-17T04:53:04;12.50;;;8.48;;
17991;SDS011;9121;50.926;5.340;2022-10-17T04:55:35;14.15;;;7.72;;
17991;SDS011;9121;50.926;5.340;2022-10-17T04:58:03;17.65;;;7.55;;
17991;SDS011;9121;50.926;5.340;2022-10-17T05:00:29;13.65;;;7.40;;
17991;SDS011;9121;50.926;5.340;2022-10-17T05:02:57;18.13;;;7.03;;
17991;SDS011;9121;50.926;5.340;2022-10-17T05:05:25;11.18;;;7.55;;
17991;SDS011;9121;50.926;5.340;2022-10-17T05:07:52;15.48;;;7.18;;
17991;SDS011;9121;50.926;5.340;2022-10-17T05:10:19;12.10;;;6.93;;
17991;SDS011;9121;50.926;5.340;2022-10-17T05:12:46;12.45;;;7.28;;
17991;SDS011;9121;50.926;5.340;2022-10-17T05:15:12;10.60;;;6.72;;
17991;SDS011;9121;50.926;5.340;2022-10-17T05:17:39;11.18;;;6.80;;
17991;SDS011;9121;50.926;5.340;2022-10-17T05:20:07;12.55;;;6.25;;
17991;SDS011;9121;50.926;5.340;2022-10-17T05:22:36;8.55;;;6.20;;
17991;SDS011;9121;50.926;5.340;2022-10-17T05:25:03;10.05;;;6.05;;
17991;SDS011;9121;50.926;5.340;2022-10-17T05:27:31;13.45;;;6.82;;
17991;SDS011;9121;50.926;5.340;2022-10-17T05:29:58;13.23;;;7.80;;
17991;SDS011;9121;50.926;5.340;2022-10-17T05:32:25;9.07;;;6.63;;
17991;SDS011;9121;50.926;5.340;2022-10-17T05:34:52;10.43;;;6.93;;
17991;SDS011;9121;50.926;5.340;2022-10-17T05:37:19;10.23;;;6.50;;
17991;SDS011;9121;50.926;5.340;2022-10-17T05:39:47;10.50;;;6.05;;
17991;SDS011;9121;50.926;5.340;2022-10-17T05:42:14;8.27;;;5.65;;
17991;SDS011;9121;50.926;5.340;2022-10-17T05:44:41;12.20;;;6.43;;
17991;SDS011;9121;50.926;5.340;2022-10-17T05:47:08;11.35;;;5.22;;
17991;SDS011;9121;50.926;5.340;2022-10-17T05:49:35;12.43;;;6.18;;
17991;SDS011;9121;50.926;5.340;2022-10-17T05:52:02;14.13;;;5.93;;
17991;SDS011;9121;50.926;5.340;2022-10-17T05:54:29;15.18;;;6.57;;
17991;SDS011;9121;50.926;5.340;2022-10-17T05:56:57;9.82;;;5.07;;
17991;SDS011;9121;50.926;5.340;2022-10-17T05:59:24;16.90;;;6.28;;
17991;SDS011;9121;50.926;5.340;2022-10-17T06:01:52;7.65;;;5.40;;
17991;SDS011;9121;50.926;5.340;2022-10-17T06:04:19;10.07;;;6.35;;
17991;SDS011;9121;50.926;5.340;2022-10-17T06:06:46;12.40;;;5.65;;
17991;SDS011;9121;50.926;5.340;2022-10-17T06:09:13;12.82;;;6.20;;
17991;SDS011;9121;50.926;5.340;2022-10-17T06:11:40;11.10;;;5.43;;
17991;SDS011;9121;50.926;5.340;2022-10-17T06:14:09;11.32;;;5.43;;
17991;SDS011;9121;50.926;5.340;2022-10-17T06:16:36;7.63;;;4.82;;
17991;SDS011;9121;50.926;5.340;2022-10-17T06:19:03;10.60;;;5.90;;
17991;SDS011;9121;50.926;5.340;2022-10-17T06:21:30;6.70;;;5.25;;
17991;SDS011;9121;50.926;5.340;2022-10-17T06:24:00;6.88;;;5.45;;
17991;SDS011;9121;50.926;5.340;2022-10-17T06:26:27;8.48;;;4.95;;
17991;SDS011;9121;50.926;5.340;2022-10-17T06:28:54;13.57;;;5.80;;
17991;SDS011;9121;50.926;5.340;2022-10-17T06:31:22;16.42;;;4.97;;
17991;SDS011;9121;50.926;5.340;2022-10-17T06:33:49;8.65;;;5.07;;
17991;SDS011;9121;50.926;5.340;2022-10-17T06:36:16;17.65;;;5.80;;
17991;SDS011;9121;50.926;5.340;2022-10-17T06:38:44;8.50;;;5.10;;
17991;SDS011;9121;50.926;5.340;2022-10-17T06:41:11;5.43;;;4.68;;
17991;SDS011;9121;50.926;5.340;2022-10-17T06:43:40;15.82;;;5.40;;
17991;SDS011;9121;50.926;5.340;2022-10-17T06:46:10;11.32;;;5.30;;
17991;SDS011;9121;50.926;5.340;2022-10-17T06:48:39;14.35;;;5.35;;
17991;SDS011;9121;50.926;5.340;2022-10-17T06:51:06;14.73;;;4.72;;
17991;SDS011;9121;50.926;5.340;2022-10-17T06:53:36;10.13;;;4.68;;
17991;SDS011;9121;50.926;5.340;2022-10-17T06:56:04;10.80;;;4.70;;
17991;SDS011;9121;50.926;5.340;2022-10-17T06:58:32;10.02;;;4.30;;
17991;SDS011;9121;50.926;5.340;2022-10-17T07:01:02;8.13;;;4.63;;
17991;SDS011;9121;50.926;5.340;2022-10-17T07:03:31;28.00;;;15.18;;
17991;SDS011;9121;50.926;5.340;2022-10-17T07:05:59;10.38;;;4.72;;
17991;SDS011;9121;50.926;5.340;2022-10-17T07:08:26;9.88;;;4.47;;
17991;SDS011;9121;50.926;5.340;2022-10-17T07:10:53;9.63;;;4.18;;
17991;SDS011;9121;50.926;5.340;2022-10-17T07:13:21;9.07;;;4.55;;
17991;SDS011;9121;50.926;5.340;2022-10-17T07:15:48;10.45;;;4.80;;
17991;SDS011;9121;50.926;5.340;2022-10-17T07:18:15;8.60;;;4.60;;
17991;SDS011;9121;50.926;5.340;2022-10-17T07:20:42;9.05;;;4.25;;
17991;SDS011;9121;50.926;5.340;2022-10-17T07:23:10;7.88;;;4.22;;
17991;SDS011;9121;50.926;5.340;2022-10-17T07:25:37;7.35;;;4.70;;
17991;SDS011;9121;50.926;5.340;2022-10-17T07:28:04;11.13;;;5.72;;
17991;SDS011;9121;50.926;5.340;2022-10-17T07:30:32;7.90;;;4.32;;
17991;SDS011;9121;50.926;5.340;2022-10-17T07:32:59;9.82;;;4.43;;
17991;SDS011;9121;50.926;5.340;2022-10-17T07:35:26;14.40;;;5.03;;
17991;SDS011;9121;50.926;5.340;2022-10-17T07:37:53;9.75;;;4.40;;
17991;SDS011;9121;50.926;5.340;2022-10-17T07:40:22;13.15;;;5.13;;
17991;SDS011;9121;50.926;5.340;2022-10-17T07:42:49;7.05;;;4.00;;
17991;SDS011;9121;50.926;5.340;2022-10-17T07:45:16;6.47;;;4.22;;
17991;SDS011;9121;50.926;5.340;2022-10-17T07:47:43;12.63;;;5.22;;
17991;SDS011;9121;50.926;5.340;2022-10-17T07:50:10;13.77;;;4.95;;
17991;SDS011;9121;50.926;5.340;2022-10-17T07:52:37;11.20;;;4.03;;
17991;SDS011;9121;50.926;5.340;2022-10-17T07:55:07;11.73;;;4.20;;
17991;SDS011;9121;50.926;5.340;2022-10-17T07:57:36;11.60;;;3.88;;
17991;SDS011;9121;50.926;5.340;2022-10-17T08:00:04;6.63;;;3.60;;
17991;SDS011;9121;50.926;5.340;2022-10-17T08:02:33;13.18;;;4.43;;
17991;SDS011;9121;50.926;5.340;2022-10-17T08:04:59;13.65;;;3.92;;
17991;SDS011;9121;50.926;5.340;2022-10-17T08:07:28;6.78;;;4.20;;
17991;SDS011;9121;50.926;5.340;2022-10-17T08:09:55;11.07;;;4.28;;
17991;SDS011;9121;50.926;5.340;2022-10-17T08:12:22;8.70;;;4.22;;
17991;SDS011;9121;50.926;5.340;2022-10-17T08:14:51;8.07;;;4.00;;
17991;SDS011;9121;50.926;5.340;2022-10-17T08:17:18;10.32;;;4.35;;
17991;SDS011;9121;50.926;5.340;2022-10-17T08:19:45;7.75;;;4.18;;
17991;SDS011;9121;50.926;5.340;2022-10-17T08:22:12;10.63;;;4.10;;
17991;SDS011;9121;50.926;5.340;2022-10-17T08:24:39;11.85;;;4.15;;
17991;SDS011;9121;50.926;5.340;2022-10-17T08:27:06;10.68;;;4.35;;
17991;SDS011;9121;50.926;5.340;2022-10-17T08:29:35;6.88;;;4.22;;
17991;SDS011;9121;50.926;5.340;2022-10-17T08:32:04;6.97;;;4.10;;
17991;SDS011;9121;50.926;5.340;2022-10-17T08:34:33;9.60;;;4.13;;
17991;SDS011;9121;50.926;5.340;2022-10-17T08:37:00;8.35;;;4.20;;
17991;SDS011;9121;50.926;5.340;2022-10-17T08:39:27;9.52;;;4.13;;
17991;SDS011;9121;50.926;5.340;2022-10-17T08:41:58;9.32;;;3.88;;
17991;SDS011;9121;50.926;5.340;2022-10-17T08:44:38;11.82;;;4.40;;
17991;SDS011;9121;50.926;5.340;2022-10-17T08:47:18;12.25;;;4.60;;
17991;SDS011;9121;50.926;5.340;2022-10-17T08:49:51;9.90;;;4.55;;
17991;SDS011;9121;50.926;5.340;2022-10-17T08:52:26;19.25;;;5.30;;
17991;SDS011;9121;50.926;5.340;2022-10-17T08:54:58;12.55;;;4.45;;
17991;SDS011;9121;50.926;5.340;2022-10-17T08:57:25;7.15;;;3.97;;
17991;SDS011;9121;50.926;5.340;2022-10-17T08:59:52;8.07;;;4.18;;
17991;SDS011;9121;50.926;5.340;2022-10-17T09:02:29;8.20;;;4.15;;
17991;SDS011;9121;50.926;5.340;2022-10-17T09:05:13;10.15;;;4.55;;
17991;SDS011;9121;50.926;5.340;2022-10-17T09:07:52;6.00;;;3.53;;
17991;SDS011;9121;50.926;5.340;2022-10-17T09:10:29;9.07;;;4.07;;
17991;SDS011;9121;50.926;5.340;2022-10-17T09:13:06;6.03;;;3.97;;
17991;SDS011;9121;50.926;5.340;2022-10-17T09:15:48;9.55;;;4.60;;
17991;SDS011;9121;50.926;5.340;2022-10-17T09:18:27;12.55;;;4.40;;
17991;SDS011;9121;50.926;5.340;2022-10-17T09:20:58;8.25;;;4.38;;
17991;SDS011;9121;50.926;5.340;2022-10-17T09:23:30;8.90;;;4.10;;
17991;SDS011;9121;50.926;5.340;2022-10-17T09:26:02;9.45;;;3.58;;
17991;SDS011;9121;50.926;5.340;2022-10-17T09:28:30;13.63;;;4.18;;
17991;SDS011;9121;50.926;5.340;2022-10-17T09:31:00;14.07;;;4.75;;
17991;SDS011;9121;50.926;5.340;2022-10-17T09:33:32;10.82;;;4.60;;
17991;SDS011;9121;50.926;5.340;2022-10-17T09:36:03;13.30;;;4.53;;
17991;SDS011;9121;50.926;5.340;2022-10-17T09:38:37;11.52;;;4.88;;
17991;SDS011;9121;50.926;5.340;2022-10-17T09:41:10;14.32;;;5.18;;
17991;SDS011;9121;50.926;5.340;2022-10-17T09:43:42;11.43;;;5.75;;
17991;SDS011;9121;50.926;5.340;2022-10-17T09:46:10;15.13;;;6.22;;
17991;SDS011;9121;50.926;5.340;2022-10-17T09:48:44;12.00;;;5.40;;
17991;SDS011;9121;50.926;5.340;2022-10-17T09:51:15;9.27;;;6.65;;
17991;SDS011;9121;50.926;5.340;2022-10-17T09:53:44;8.55;;;5.35;;
17991;SDS011;9121;50.926;5.340;2022-10-17T09:56:15;12.38;;;5.55;;
17991;SDS011;9121;50.926;5.340;2022-10-17T09:58:44;10.38;;;5.60;;
17991;SDS011;9121;50.926;5.340;2022-10-17T10:01:20;11.15;;;5.35;;
17991;SDS011;9121;50.926;5.340;2022-10-17T10:04:06;11.02;;;5.68;;
17991;SDS011;9121;50.926;5.340;2022-10-17T10:06:34;12.00;;;6.93;;
17991;SDS011;9121;50.926;5.340;2022-10-17T10:09:01;11.00;;;6.60;;
17991;SDS011;9121;50.926;5.340;2022-10-17T10:11:43;20.77;;;8.88;;
17991;SDS011;9121;50.926;5.340;2022-10-17T10:14:18;11.80;;;6.25;;
17991;SDS011;9121;50.926;5.340;2022-10-17T10:16:47;14.35;;;7.30;;
17991;SDS011;9121;50.926;5.340;2022-10-17T10:19:20;17.83;;;7.75;;
17991;SDS011;9121;50.926;5.340;2022-10-17T10:21:54;9.55;;;5.82;;
17991;SDS011;9121;50.926;5.340;2022-10-17T10:24:22;9.00;;;5.63;;
17991;SDS011;9121;50.926;5.340;2022-10-17T10:26:51;8.45;;;5.95;;
17991;SDS011;9121;50.926;5.340;2022-10-17T10:29:25;11.40;;;5.50;;
17991;SDS011;9121;50.926;5.340;2022-10-17T10:31:55;10.57;;;6.22;;
17991;SDS011;9121;50.926;5.340;2022-10-17T10:34:33;12.00;;;6.43;;
17991;SDS011;9121;50.926;5.340;2022-10-17T10:37:03;12.88;;;5.90;;
17991;SDS011;9121;50.926;5.340;2022-10-17T10:39:35;10.35;;;5.45;;
17991;SDS011;9121;50.926;5.340;2022-10-17T10:42:19;14.63;;;6.95;;
17991;SDS011;9121;50.926;5.340;2022-10-17T10:44:51;11.40;;;5.90;;
17991;SDS011;9121;50.926;5.340;2022-10-17T10:47:24;11.75;;;5.85;;
17991;SDS011;9121;50.926;5.340;2022-10-17T10:50:06;13.32;;;5.18;;
17991;SDS011;9121;50.926;5.340;2022-10-17T10:52:55;12.80;;;5.80;;
17991;SDS011;9121;50.926;5.340;2022-10-17T10:55:39;9.43;;;4.93;;
17991;SDS011;9121;50.926;5.340;2022-10-17T10:58:14;11.82;;;4.38;;
17991;SDS011;9121;50.926;5.340;2022-10-17T11:00:48;10.23;;;4.03;;
17991;SDS011;9121;50.926;5.340;2022-10-17T11:03:18;14.35;;;4.78;;
17991;SDS011;9121;50.926;5.340;2022-10-17T11:05:54;8.13;;;4.00;;
17991;SDS011;9121;50.926;5.340;2022-10-17T11:08:25;11.55;;;4.60;;
17991;SDS011;9121;50.926;5.340;2022-10-17T11:11:02;10.20;;;4.70;;
17991;SDS011;9121;50.926;5.340;2022-10-17T11:13:39;7.80;;;4.35;;
17991;SDS011;9121;50.926;5.340;2022-10-17T11:16:22;7.65;;;4.07;;
17991;SDS011;9121;50.926;5.340;2022-10-17T11:18:55;11.82;;;4.53;;
17991;SDS011;9121;50.926;5.340;2022-10-17T11:21:32;11.00;;;4.82;;
17991;SDS011;9121;50.926;5.340;2022-10-17T11:24:06;12.60;;;4.95;;
17991;SDS011;9121;50.926;5.340;2022-10-17T11:26:40;9.68;;;4.03;;
17991;SDS011;9121;50.926;5.340;2022-10-17T11:29:11;8.68;;;4.45;;
17991;SDS011;9121;50.926;5.340;2022-10-17T11:31:40;8.43;;;4.28;;
17991;SDS011;9121;50.926;5.340;2022-10-17T11:34:13;14.88;;;4.30;;
17991;SDS011;9121;50.926;5.340;2022-10-17T11:36:46;10.35;;;3.78;;
17991;SDS011;9121;50.926;5.340;2022-10-17T11:39:17;8.38;;;4.65;;
17991;SDS011;9121;50.926;5.340;2022-10-17T11:41:48;7.45;;;3.90;;
17991;SDS011;9121;50.926;5.340;2022-10-17T11:44:19;12.43;;;3.80;;
17991;SDS011;9121;50.926;5.340;2022-10-17T11:46:53;7.55;;;3.55;;
17991;SDS011;9121;50.926;5.340;2022-10-17T11:49:26;14.38;;;4.03;;
17991;SDS011;9121;50.926;5.340;2022-10-17T11:52:03;14.52;;;4.60;;
17991;SDS011;9121;50.926;5.340;2022-10-17T11:54:40;11.32;;;4.15;;
17991;SDS011;9121;50.926;5.340;2022-10-17T12:00:09;12.50;;;3.80;;
17991;SDS011;9121;50.926;5.340;2022-10-17T12:02:49;7.68;;;3.35;;
17991;SDS011;9121;50.926;5.340;2022-10-17T12:05:24;11.13;;;4.00;;
17991;SDS011;9121;50.926;5.340;2022-10-17T12:08:00;12.05;;;3.72;;
17991;SDS011;9121;50.926;5.340;2022-10-17T12:10:32;9.68;;;3.30;;
17991;SDS011;9121;50.926;5.340;2022-10-17T12:19:25;6.93;;;3.60;;
17991;SDS011;9121;50.926;5.340;2022-10-17T12:21:57;11.90;;;3.60;;
17991;SDS011;9121;50.926;5.340;2022-10-17T12:24:33;7.75;;;3.53;;
17991;SDS011;9121;50.926;5.340;2022-10-17T12:30:13;11.38;;;4.28;;
17991;SDS011;9121;50.926;5.340;2022-10-17T12:32:53;8.73;;;3.72;;
17991;SDS011;9121;50.926;5.340;2022-10-17T12:35:28;13.85;;;4.72;;
17991;SDS011;9121;50.926;5.340;2022-10-17T12:38:01;11.57;;;4.20;;
17991;SDS011;9121;50.926;5.340;2022-10-17T12:40:55;15.88;;;4.85;;
17991;SDS011;9121;50.926;5.340;2022-10-17T12:52:17;8.88;;;4.57;;
17991;SDS011;9121;50.926;5.340;2022-10-17T12:54:47;12.02;;;4.65;;
17991;SDS011;9121;50.926;5.340;2022-10-17T12:57:26;13.30;;;4.57;;
17991;SDS011;9121;50.926;5.340;2022-10-17T13:00:00;11.00;;;4.50;;
17991;SDS011;9121;50.926;5.340;2022-10-17T13:02:30;8.65;;;5.05;;
17991;SDS011;9121;50.926;5.340;2022-10-17T13:05:02;11.23;;;4.97;;
17991;SDS011;9121;50.926;5.340;2022-10-17T13:07:34;12.52;;;5.10;;
17991;SDS011;9121;50.926;5.340;2022-10-17T13:10:02;9.88;;;4.80;;
17991;SDS011;9121;50.926;5.340;2022-10-17T13:12:33;8.48;;;4.32;;
17991;SDS011;9121;50.926;5.340;2022-10-17T13:15:02;11.73;;;5.55;;
17991;SDS011;9121;50.926;5.340;2022-10-17T13:17:33;11.43;;;4.88;;
17991;SDS011;9121;50.926;5.340;2022-10-17T13:20:00;13.55;;;5.30;;
17991;SDS011;9121;50.926;5.340;2022-10-17T13:22:29;8.50;;;4.50;;
17991;SDS011;9121;50.926;5.340;2022-10-17T13:25:07;11.10;;;5.20;;
17991;SDS011;9121;50.926;5.340;2022-10-17T13:27:40;14.05;;;6.00;;
17991;SDS011;9121;50.926;5.340;2022-10-17T13:30:21;12.82;;;5.80;;
17991;SDS011;9121;50.926;5.340;2022-10-17T13:32:50;8.23;;;4.88;;
17991;SDS011;9121;50.926;5.340;2022-10-17T13:35:21;18.60;;;5.35;;
17991;SDS011;9121;50.926;5.340;2022-10-17T13:37:51;11.88;;;5.90;;
17991;SDS011;9121;50.926;5.340;2022-10-17T13:40:21;9.63;;;5.40;;
17991;SDS011;9121;50.926;5.340;2022-10-17T13:42:51;10.50;;;5.00;;
17991;SDS011;9121;50.926;5.340;2022-10-17T13:45:23;10.35;;;5.57;;
17991;SDS011;9121;50.926;5.340;2022-10-17T13:47:54;16.02;;;5.70;;
17991;SDS011;9121;50.926;5.340;2022-10-17T13:50:24;14.15;;;6.25;;
17991;SDS011;9121;50.926;5.340;2022-10-17T13:53:16;12.65;;;5.13;;
17991;SDS011;9121;50.926;5.340;2022-10-17T13:55:56;16.15;;;6.22;;
17991;SDS011;9121;50.926;5.340;2022-10-17T13:58:28;14.50;;;6.07;;
17991;SDS011;9121;50.926;5.340;2022-10-17T14:00:59;16.23;;;6.43;;
17991;SDS011;9121;50.926;5.340;2022-10-17T14:03:26;11.65;;;6.85;;
17991;SDS011;9121;50.926;5.340;2022-10-17T14:05:59;13.95;;;6.53;;
17991;SDS011;9121;50.926;5.340;2022-10-17T14:08:31;12.35;;;6.93;;
17991;SDS011;9121;50.926;5.340;2022-10-17T14:10:59;14.75;;;8.02;;
17991;SDS011;9121;50.926;5.340;2022-10-17T14:13:29;17.52;;;7.82;;
17991;SDS011;9121;50.926;5.340;2022-10-17T14:16:00;15.75;;;8.10;;
17991;SDS011;9121;50.926;5.340;2022-10-17T14:18:29;15.85;;;8.15;;
17991;SDS011;9121;50.926;5.340;2022-10-17T14:20:58;18.00;;;8.32;;
17991;SDS011;9121;50.926;5.340;2022-10-17T14:23:28;15.02;;;8.02;;
17991;SDS011;9121;50.926;5.340;2022-10-17T14:26:06;18.45;;;8.60;;
17991;SDS011;9121;50.926;5.340;2022-10-17T14:28:37;15.10;;;8.98;;
17991;SDS011;9121;50.926;5.340;2022-10-17T14:31:09;17.50;;;8.75;;
17991;SDS011;9121;50.926;5.340;2022-10-17T14:33:50;15.77;;;8.27;;
17991;SDS011;9121;50.926;5.340;2022-10-17T14:36:18;19.75;;;9.18;;
17991;SDS011;9121;50.926;5.340;2022-10-17T14:38:46;13.57;;;8.63;;
17991;SDS011;9121;50.926;5.340;2022-10-17T14:41:18;15.60;;;9.25;;
17991;SDS011;9121;50.926;5.340;2022-10-17T14:43:52;12.27;;;8.55;;
17991;SDS011;9121;50.926;5.340;2022-10-17T14:46:21;14.07;;;9.15;;
17991;SDS011;9121;50.926;5.340;2022-10-17T14:48:55;14.18;;;8.70;;
17991;SDS011;9121;50.926;5.340;2022-10-17T14:51:27;14.00;;;8.35;;
17991;SDS011;9121;50.926;5.340;2022-10-17T14:54:01;14.45;;;8.50;;
17991;SDS011;9121;50.926;5.340;2022-10-17T14:56:34;13.38;;;8.00;;
17991;SDS011;9121;50.926;5.340;2022-10-17T14:59:05;15.15;;;8.57;;
17991;SDS011;9121;50.926;5.340;2022-10-17T15:01:34;16.48;;;8.63;;
17991;SDS011;9121;50.926;5.340;2022-10-17T15:04:01;17.17;;;8.82;;
17991;SDS011;9121;50.926;5.340;2022-10-17T15:06:29;21.17;;;10.27;;
17991;SDS011;9121;50.926;5.340;2022-10-17T15:08:58;18.05;;;9.43;;
17991;SDS011;9121;50.926;5.340;2022-10-17T15:11:26;19.30;;;9.63;;
17991;SDS011;9121;50.926;5.340;2022-10-17T15:13:53;17.08;;;9.02;;
17991;SDS011;9121;50.926;5.340;2022-10-17T15:16:22;13.32;;;8.02;;
17991;SDS011;9121;50.926;5.340;2022-10-17T15:18:51;20.98;;;10.38;;
17991;SDS011;9121;50.926;5.340;2022-10-17T15:21:20;19.10;;;10.15;;
17991;SDS011;9121;50.926;5.340;2022-10-17T15:23:48;24.33;;;13.07;;
17991;SDS011;9121;50.926;5.340;2022-10-17T15:26:17;22.38;;;11.73;;
17991;SDS011;9121;50.926;5.340;2022-10-17T15:28:45;24.00;;;12.23;;
17991;SDS011;9121;50.926;5.340;2022-10-17T15:31:14;22.42;;;13.23;;
17991;SDS011;9121;50.926;5.340;2022-10-17T15:33:43;19.92;;;11.95;;
17991;SDS011;9121;50.926;5.340;2022-10-17T15:36:17;21.00;;;11.70;;
17991;SDS011;9121;50.926;5.340;2022-10-17T15:38:46;22.40;;;11.60;;
17991;SDS011;9121;50.926;5.340;2022-10-17T15:41:13;15.75;;;10.93;;